Latest Coastal Weather Observations for Alva Beach

IDQ60701

Issued at 10:31 am EST Monday 31 August 2015 (issued every 10 minutes, with the page automatically refreshed every 10 minutes)

About coastal observations | Map of coastal stations | Coastal observations for QLD | Marine services | Other Formats
Station Details ID: 033295 Name: ALVA BEACH Lat: -19.46 Lon: 147.48 Height: 7.5 m
Data from the previous 72 hours. | See also: Recent months at Alva Beach
Date/Time
EST
Temp

°C
Wind Pressure Rain
since 9am
mm
Weather Cloud Vis
km
Sea
Height
m
Swell
Dir
 
Speed
knots
Gust
knots
hPa Trend Height
m
Period
s
Dir
31/10:30am 25.7 ESE 9 12 1017.0 - 0.0 - - - - - - -
31/10:00am 25.6 E 9 13 1017.4 - 0.0 - - - - - - -
31/09:30am 25.4 ESE 7 11 1017.2 - 0.0 - - - - - - -
31/09:00am 23.7 ESE 6 9 1017.1 - 0.0 - - - - - - -
31/08:30am 24.4 ESE 5 8 1016.9 - 0.0 - - - - - - -
31/08:00am 22.6 S 3 5 1016.6 - 0.0 - - - - - - -
31/07:30am 21.7 SSW 4 6 1016.4 - 0.0 - - - - - - -
31/07:00am 20.5 SSW 3 4 1016.0 - 0.0 - - - - - - -
31/06:30am 19.5 S 4 5 1015.7 - 0.0 - - - - - - -
31/06:00am 19.7 S 4 5 1015.5 - 0.0 - - - - - - -
31/05:30am 19.5 SSW 4 5 1015.2 - 0.0 - - - - - - -
31/05:00am 20.0 S 3 4 1015.0 - 0.0 - - - - - - -
31/04:30am 20.6 SSE 1 3 1014.8 - 0.0 - - - - - - -
31/04:00am 20.5 S 3 4 1015.0 - 0.0 - - - - - - -
31/03:30am 20.5 S 2 4 1015.1 - 0.0 - - - - - - -
31/03:00am 20.8 SSW 3 4 1015.3 - 0.0 - - - - - - -
31/02:30am 21.0 S 2 4 1015.5 - 0.0 - - - - - - -
31/02:00am 21.9 E 2 5 1015.7 - 0.0 - - - - - - -
31/01:30am 22.4 E 3 5 1015.8 - 0.0 - - - - - - -
31/01:00am 22.9 ENE 6 7 1015.9 - 0.0 - - - - - - -
31/12:30am 23.0 ENE 4 6 1016.0 - 0.0 - - - - - - -
31/12:00am 23.1 ENE 6 7 1016.2 - 0.0 - - - - - - -
 
Date/Time
EST
Temp

°C
Wind Pressure Rain
since 9am
mm
Weather Cloud Vis
km
Sea
Height
m
Swell
Dir
 
Speed
knots
Gust
knots
hPa Trend Height
m
Period
s
Dir
30/11:30pm 23.3 ENE 7 8 1016.4 - 0.0 - - - - - - -
30/11:00pm 23.2 ENE 5 7 1016.4 - 0.0 - - - - - - -
30/10:30pm 23.3 ENE 5 6 1016.4 - 0.0 - - - - - - -
30/10:00pm 23.3 NE 5 7 1016.2 - 0.0 - - - - - - -
30/09:30pm 23.4 NE 7 8 1015.9 - 0.0 - - - - - - -
30/09:00pm 23.5 NE 7 8 1015.8 - 0.0 - - - - - - -
30/08:30pm 23.2 NNE 7 9 1015.4 - 0.0 - - - - - - -
30/08:00pm 23.2 NNE 8 10 1015.0 - 0.0 - - - - - - -
30/07:30pm 23.2 NNE 7 9 1014.7 - 0.0 - - - - - - -
30/07:00pm 23.1 N 6 8 1014.4 - 0.0 - - - - - - -
30/06:30pm 23.3 NNE 7 9 1014.1 - 0.0 - - - - - - -
30/06:00pm 23.4 NNE 9 11 1013.9 - 0.0 - - - - - - -
30/05:30pm 23.5 NE 9 11 1013.6 - 0.0 - - - - - - -
30/05:00pm 23.9 NE 10 11 1013.5 - 0.0 - - - - - - -
30/04:30pm 24.0 NE 11 13 1013.4 - 0.0 - - - - - - -
30/04:00pm 24.2 NNE 12 13 1013.3 - 0.0 - - - - - - -
30/03:30pm 24.4 NNE 11 13 1013.5 - 0.0 - - - - - - -
30/03:00pm 24.8 NNE 12 14 1013.7 - 0.0 - - - - - - -
30/02:30pm 24.5 NE 12 14 1014.2 - 0.0 - - - - - - -
30/02:00pm 24.8 NE 10 12 1014.8 - 0.0 - - - - - - -
30/01:30pm 24.5 NE 9 12 1015.2 - 0.0 - - - - - - -
30/01:00pm 25.0 NE 10 12 1015.7 - 0.0 - - - - - - -
30/12:30pm 25.2 NE 9 11 1016.1 - 0.0 - - - - - - -
30/12:00pm 24.7 ENE 9 12 1016.7 - 0.0 - - - - - - -
30/11:30am 24.8 ENE 8 9 1017.3 - 0.0 - - - - - - -
30/11:00am 23.8 NE 7 9 1017.8 - 0.0 - - - - - - -
30/10:30am 23.9 ENE 6 8 1018.2 - 0.0 - - - - - - -
30/10:00am 23.3 NNE 7 10 1018.4 - 0.0 - - - - - - -
30/09:30am 25.5 ESE 6 9 1018.3 - 0.0 - - - - - - -
30/09:00am 23.4 ESE 7 9 1018.1 - 0.0 - - - - - - -
30/08:30am 22.5 SSE 2 4 1017.8 - 0.0 - - - - - - -
30/08:00am 22.2 S 4 6 1017.7 - 0.0 - - - - - - -
30/07:30am 20.5 SSW 3 4 1017.4 - 0.0 - - - - - - -
30/07:00am 20.1 S 3 5 1017.1 - 0.0 - - - - - - -
30/06:30am 19.8 S 4 5 1016.7 - 0.0 - - - - - - -
30/06:00am 19.6 SSE 4 7 1016.3 - 0.0 - - - - - - -
30/05:30am 19.4 S 5 7 1016.0 - 0.0 - - - - - - -
30/05:00am 19.5 SSW 4 5 1015.8 - 0.0 - - - - - - -
30/04:30am 20.1 SSW 3 5 1015.6 - 0.0 - - - - - - -
30/04:00am 22.0 ENE 4 5 1015.6 - 0.0 - - - - - - -
30/03:30am 22.4 E 5 7 1015.5 - 0.0 - - - - - - -
30/03:00am 22.6 E 6 8 1015.6 - 0.0 - - - - - - -
30/02:30am 22.7 ENE 8 10 1015.6 - 0.0 - - - - - - -
30/02:00am 22.8 ENE 6 8 1016.0 - 0.0 - - - - - - -
30/01:30am 22.9 NE 8 9 1016.3 - 0.0 - - - - - - -
30/01:00am 22.9 NE 9 11 1016.4 - 0.0 - - - - - - -
30/12:30am 22.8 NE 9 11 1016.5 - 0.0 - - - - - - -
30/12:00am 22.8 NE 10 12 1016.8 - 0.0 - - - - - - -
 
Date/Time
EST
Temp

°C
Wind Pressure Rain
since 9am
mm
Weather Cloud Vis
km
Sea
Height
m
Swell
Dir
 
Speed
knots
Gust
knots
hPa Trend Height
m
Period
s
Dir
29/11:30pm 22.9 ENE 10 12 1017.1 - 0.0 - - - - - - -
29/11:00pm 22.8 NE 9 11 1017.2 - 0.0 - - - - - - -
29/10:30pm 23.0 ENE 9 11 1017.3 - 0.0 - - - - - - -
29/10:00pm 23.0 NE 9 10 1017.3 - 0.0 - - - - - - -
29/09:30pm 23.0 NE 9 11 1017.3 - 0.0 - - - - - - -
29/09:00pm 23.1 NE 10 12 1017.5 - 0.0 - - - - - - -
29/08:30pm 23.2 NE 10 12 1017.3 - 0.0 - - - - - - -
29/08:00pm 23.1 NE 11 13 1016.9 - 0.0 - - - - - - -
29/07:30pm 23.2 ENE 13 15 1016.5 - 0.0 - - - - - - -
29/07:00pm 23.1 ENE 11 13 1016.5 - 0.0 - - - - - - -
29/06:30pm 23.0 ENE 11 13 1016.5 - 0.0 - - - - - - -
29/06:00pm 23.1 ENE 11 13 1016.4 - 0.0 - - - - - - -
29/05:30pm 23.5 ENE 11 13 1016.3 - 0.0 - - - - - - -
29/05:00pm 23.9 ENE 9 12 1016.3 - 0.0 - - - - - - -
29/04:30pm 24.2 ENE 9 11 1016.3 - 0.0 - - - - - - -
29/04:00pm 24.3 ENE 8 11 1016.2 - 0.0 - - - - - - -
29/03:30pm 24.6 E 8 11 1016.5 - 0.0 - - - - - - -
29/03:00pm 24.8 E 9 12 1016.5 - 0.0 - - - - - - -
29/02:30pm 24.6 E 8 10 1017.2 - 0.0 - - - - - - -
29/02:00pm 25.3 E 8 12 1017.4 - 0.0 - - - - - - -
29/01:30pm 25.1 E 9 13 1017.8 - 0.0 - - - - - - -
29/01:00pm 24.7 E 8 11 1018.3 - 0.0 - - - - - - -
29/12:30pm 25.4 E 8 12 1018.7 - 0.0 - - - - - - -
29/12:00pm 25.6 E 9 12 1019.2 - 0.0 - - - - - - -
29/11:30am 24.6 E 9 13 1019.7 - 0.0 - - - - - - -
29/11:00am 25.3 E 7 11 1020.3 - 0.0 - - - - - - -
29/10:30am 25.9 ESE 7 10 1020.4 - 0.0 - - - - - - -
29/10:00am 25.6 ESE 6 10 1020.3 - 0.0 - - - - - - -
29/09:30am 25.3 ESE 6 9 1020.6 - 0.0 - - - - - - -
29/09:00am 25.4 ESE 7 11 1020.2 - 0.0 - - - - - - -
29/08:30am 23.5 SSE 4 8 1020.0 - 0.0 - - - - - - -
29/08:00am 22.1 SSW 4 6 1019.8 - 0.0 - - - - - - -
29/07:30am 21.1 S 4 5 1019.4 - 0.0 - - - - - - -
29/07:00am 20.0 S 3 5 1019.1 - 0.0 - - - - - - -
29/06:30am 19.4 S 4 7 1018.7 - 0.0 - - - - - - -
29/06:00am 19.4 SSW 5 6 1018.3 - 0.0 - - - - - - -
29/05:30am 20.1 SSE 2 5 1018.0 - 0.0 - - - - - - -
29/05:00am 21.8 ESE 6 9 1017.7 - 0.0 - - - - - - -
29/04:30am 22.2 E 6 8 1017.6 - 0.0 - - - - - - -
29/04:00am 22.3 E 7 9 1017.6 - 0.0 - - - - - - -
29/03:30am 22.5 E 8 10 1017.7 - 0.0 - - - - - - -
29/03:00am 22.6 E 9 11 1017.7 - 0.0 - - - - - - -
29/02:30am 22.6 E 9 13 1017.7 - 0.0 - - - - - - -
29/02:00am 22.7 E 9 12 1018.2 - 0.0 - - - - - - -
29/01:30am 22.7 E 8 11 1018.7 - 0.0 - - - - - - -
29/01:00am 22.7 E 10 13 1018.9 - 0.0 - - - - - - -
29/12:30am 22.8 E 11 15 1018.9 - 0.0 - - - - - - -
29/12:00am 22.8 E 12 15 1018.9 - 0.0 - - - - - - -
 
Date/Time
EST
Temp

°C
Wind Pressure Rain
since 9am
mm
Weather Cloud Vis
km
Sea
Height
m
Swell
Dir
 
Speed
knots
Gust
knots
hPa Trend Height
m
Period
s
Dir
28/11:30pm 22.9 E 11 13 1019.2 - 0.0 - - - - - - -
28/11:00pm 23.1 E 10 13 1019.3 - 0.0 - - - - - - -
28/10:30pm 22.9 E 10 13 1019.3 - 0.0 - - - - - - -
28/10:00pm 23.0 E 10 13 1019.4 - 0.0 - - - - - - -
28/09:30pm 23.1 ENE 10 13 1019.4 - 0.0 - - - - - - -
28/09:00pm 23.0 ENE 10 13 1019.4 - 0.0 - - - - - - -
28/08:30pm 23.3 ENE 10 12 1019.4 - 0.0 - - - - - - -
28/08:00pm 23.1 ENE 10 13 1019.1 - 0.0 - - - - - - -
28/07:30pm 23.2 ENE 11 14 1018.5 - 0.0 - - - - - - -
28/07:00pm 23.1 ENE 12 15 1018.1 - 0.0 - - - - - - -
28/06:30pm 23.3 ENE 11 13 1017.9 - 0.0 - - - - - - -
28/06:00pm 23.3 ENE 11 13 1017.5 - 0.0 - - - - - - -
28/05:30pm 23.4 ENE 12 15 1017.2 - 0.0 - - - - - - -
28/05:00pm 23.8 ENE 13 15 1016.7 - 0.0 - - - - - - -
28/04:30pm 24.1 ENE 11 14 1016.7 - 0.0 - - - - - - -
28/04:00pm 24.3 ENE 10 13 1016.6 - 0.0 - - - - - - -
28/03:30pm 24.4 ENE 12 14 1016.4 - 0.0 - - - - - - -
28/03:00pm 24.8 ENE 13 15 1016.4 - 0.0 - - - - - - -
28/02:30pm 24.9 ENE 12 15 1016.6 - 0.0 - - - - - - -
28/02:00pm 24.4 ENE 12 16 1016.8 - 0.0 - - - - - - -
28/01:30pm 24.9 E 11 15 1017.3 - 0.0 - - - - - - -
28/01:00pm 24.6 E 10 15 1017.9 - 0.0 - - - - - - -
28/12:30pm 24.7 E 10 14 1018.6 - 0.0 - - - - - - -
28/12:00pm 24.7 E 9 11 1019.1 - 0.0 - - - - - - -
28/11:30am 24.8 E 9 12 1019.7 - 0.0 - - - - - - -
28/11:00am 24.7 E 9 13 1020.1 - 0.0 - - - - - - -

Other Formats:

Comma delimited format used in spreadsheet applications
http://www.bom.gov.au/fwo/IDQ60701/IDQ60701.95296.axf

JavaScript Object Notation format (JSON) in row-major order
http://www.bom.gov.au/fwo/IDQ60701/IDQ60701.95296.json